createdAt,value
2019-01-30T00:04:59.825Z,6.86
2019-01-30T00:10:54.842Z,7.15
2019-01-30T00:16:49.827Z,7.5
2019-01-30T00:22:44.844Z,5.9
2019-01-30T00:28:39.867Z,6.01
2019-01-30T00:34:34.824Z,5.44
2019-01-30T00:40:29.842Z,5.29
2019-01-30T00:46:24.823Z,5.84
2019-01-30T00:52:19.848Z,6.44
2019-01-30T00:58:14.835Z,6.28
2019-01-30T01:04:09.870Z,5.96
2019-01-30T01:10:04.934Z,5.9
2019-01-30T01:15:59.874Z,6.39
2019-01-30T01:21:54.855Z,6.71
2019-01-30T01:27:49.887Z,7.13
2019-01-30T01:33:44.887Z,7.4
2019-01-30T01:39:39.889Z,5.88
2019-01-30T01:45:34.921Z,7.46
2019-01-30T01:51:29.889Z,7.6
2019-01-30T01:57:24.896Z,6.51
2019-01-30T02:03:19.934Z,6.27
2019-01-30T02:09:14.955Z,6.06
2019-01-30T02:15:09.922Z,6.3
2019-01-30T02:21:04.923Z,5.53
2019-01-30T02:26:59.912Z,5.12
2019-01-30T02:32:54.956Z,6.64
2019-01-30T02:38:49.916Z,6.25
2019-01-30T02:44:44.911Z,6.48
2019-01-30T02:50:39.936Z,4.1
2019-01-30T02:56:34.933Z,5.12
2019-01-30T03:02:30.011Z,5.39
2019-01-30T03:08:24.960Z,6.13
2019-01-30T03:14:19.973Z,6.85
2019-01-30T03:20:14.965Z,8.52
2019-01-30T03:26:09.936Z,7.57
2019-01-30T03:32:04.994Z,8.95
2019-01-30T03:37:59.963Z,9.29
2019-01-30T03:43:54.953Z,10.29
2019-01-30T03:49:49.921Z,11.27
2019-01-30T03:55:44.959Z,10.41
2019-01-30T04:01:39.998Z,13.63
2019-01-30T04:07:34.955Z,15.53
2019-01-30T04:13:30.001Z,11.72
2019-01-30T04:19:24.941Z,14.02
2019-01-30T04:25:20.037Z,15.58
2019-01-30T04:31:14.951Z,14.13
2019-01-30T04:37:09.956Z,23.05
2019-01-30T04:43:04.968Z,23.99
2019-01-30T04:48:59.955Z,18.51
2019-01-30T04:54:54.964Z,15.33
2019-01-30T05:00:49.964Z,16.92
2019-01-30T05:06:44.971Z,14.93
2019-01-30T05:12:39.988Z,16.27
2019-01-30T05:18:34.987Z,14.91
2019-01-30T05:24:30.038Z,13.7
2019-01-30T05:30:24.975Z,17.97
2019-01-30T05:36:19.974Z,15.44
2019-01-30T05:42:14.985Z,16.23
2019-01-30T05:48:09.991Z,16.79
2019-01-30T05:54:05.001Z,15.74
2019-01-30T06:00:00.023Z,15.37
2019-01-30T06:05:55.001Z,15.12
2019-01-30T06:11:49.992Z,13.95
2019-01-30T06:17:45.016Z,15.38
2019-01-30T06:23:40.028Z,12.2
2019-01-30T06:29:35.010Z,15.26
2019-01-30T06:35:30.039Z,17.73
2019-01-30T06:41:25.046Z,15.5
2019-01-30T06:47:20.007Z,16.43
2019-01-30T06:53:15.073Z,16.89
2019-01-30T06:59:10.025Z,20.45
2019-01-30T07:05:05.025Z,19.03
2019-01-30T07:11:09.963Z,16.72
2019-01-30T07:16:55.041Z,15.89
2019-01-30T07:22:50.075Z,17.38
2019-01-30T07:28:45.030Z,15.59
2019-01-30T07:34:40.046Z,17.23
2019-01-30T07:40:35.078Z,14.24
2019-01-30T07:46:30.045Z,16.19
2019-01-30T07:52:25.058Z,17.73
2019-01-30T07:58:20.122Z,16.45
2019-01-30T08:04:15.044Z,18.63
2019-01-30T08:10:10.066Z,20.65
2019-01-30T08:16:05.092Z,21.5
2019-01-30T08:22:00.069Z,20.64
2019-01-30T08:27:55.513Z,20.32
2019-01-30T08:33:50.068Z,22.65
2019-01-30T08:39:45.074Z,17.98
2019-01-30T08:45:40.156Z,25.34
2019-01-30T08:51:35.163Z,38.31
2019-01-30T08:57:30.090Z,46.62
2019-01-30T09:03:25.090Z,37.27
2019-01-30T09:09:20.127Z,25.18
2019-01-30T09:15:15.090Z,26.1
2019-01-30T09:21:10.094Z,26.95
2019-01-30T09:27:05.088Z,29.3
2019-01-30T09:33:00.095Z,28.18
2019-01-30T09:38:55.093Z,26.2
2019-01-30T09:44:50.123Z,37.72
2019-01-30T09:50:45.101Z,28.93
2019-01-30T09:56:40.164Z,36.88
2019-01-30T10:02:35.118Z,33.35
2019-01-30T10:08:30.140Z,33.32
2019-01-30T10:14:25.142Z,15.71
2019-01-30T10:20:20.143Z,15.63
2019-01-30T10:26:15.130Z,16.01
2019-01-30T10:32:10.143Z,21.9
2019-01-30T10:38:05.168Z,20.26
2019-01-30T10:44:00.147Z,18.96
2019-01-30T10:49:55.175Z,23.37
2019-01-30T10:55:50.192Z,24.15
2019-01-30T11:01:45.138Z,24
2019-01-30T11:07:40.150Z,20.72
2019-01-30T11:13:35.151Z,21.01
2019-01-30T11:19:30.175Z,10.51
2019-01-30T11:25:25.171Z,20.87
2019-01-30T11:31:20.182Z,22.39
2019-01-30T11:37:15.217Z,22.44
2019-01-30T11:43:10.217Z,18.13
2019-01-30T11:49:05.169Z,16.47
2019-01-30T11:55:00.182Z,27.31
2019-01-30T12:00:55.199Z,8.7
2019-01-30T12:06:50.194Z,4.96
2019-01-30T12:12:45.222Z,4.7
2019-01-30T12:18:40.196Z,3.35
2019-01-30T12:24:35.197Z,2.72
2019-01-30T12:30:30.186Z,2.77
2019-01-30T12:36:25.206Z,4.02
2019-01-30T12:42:20.184Z,4.07
2019-01-30T12:48:15.213Z,2.13
2019-01-30T12:54:10.227Z,1.83
2019-01-30T13:00:05.222Z,2.37
2019-01-30T13:06:00.251Z,3.11
2019-01-30T13:11:55.230Z,1.72
2019-01-30T13:17:50.230Z,1.32
2019-01-30T13:23:45.253Z,2.51
2019-01-30T13:29:40.304Z,3.22
2019-01-30T13:35:35.222Z,2.67
2019-01-30T13:41:30.231Z,2.22
2019-01-30T13:47:25.241Z,3.22
2019-01-30T13:53:20.245Z,6.61
2019-01-30T13:59:15.278Z,2.96
2019-01-30T14:05:10.263Z,2.09
2019-01-30T14:11:05.242Z,2.68
2019-01-30T14:17:00.298Z,2.64
2019-01-30T14:22:55.271Z,3.68
2019-01-30T14:28:50.278Z,2.68
2019-01-30T14:34:45.250Z,3.44
2019-01-30T14:40:40.258Z,2.97
2019-01-30T14:46:35.286Z,6.17
2019-01-30T14:52:30.270Z,4.01
2019-01-30T14:58:25.295Z,5.05
2019-01-30T15:04:20.331Z,4.2
2019-01-30T15:10:15.299Z,8.25
2019-01-30T15:16:10.302Z,7.5
2019-01-30T15:22:05.319Z,6.28
2019-01-30T15:28:00.295Z,6.21
2019-01-30T15:33:55.305Z,9.55
2019-01-30T15:39:50.297Z,8.72
2019-01-30T15:45:45.298Z,7.06
2019-01-30T15:51:40.291Z,5.96
2019-01-30T15:57:35.322Z,5.26
2019-01-30T16:03:30.304Z,6.16
2019-01-30T16:09:25.306Z,5.64
2019-01-30T16:15:20.302Z,5.19
2019-01-30T16:21:15.336Z,5.7
2019-01-30T16:27:10.296Z,5.5
2019-01-30T16:33:05.317Z,6.11
2019-01-30T16:39:00.361Z,6.51
2019-01-30T16:44:55.339Z,7.37
2019-01-30T16:50:50.346Z,6.87
2019-01-30T16:56:45.377Z,6.4
2019-01-30T17:02:40.339Z,7.51
2019-01-30T17:08:35.353Z,7.92
2019-01-30T17:14:30.342Z,8.25
2019-01-30T17:20:25.360Z,8.35
2019-01-30T17:26:20.358Z,14.33
2019-01-30T17:32:15.351Z,12.87
2019-01-30T17:38:10.344Z,11.83
2019-01-30T17:44:05.373Z,13.44
2019-01-30T17:50:00.389Z,10.83
2019-01-30T17:55:55.384Z,9.97
2019-01-30T18:01:50.367Z,11.3
2019-01-30T18:07:45.364Z,10.77
2019-01-30T18:13:40.432Z,12.06
2019-01-30T18:19:35.412Z,12.57
2019-01-30T18:25:30.396Z,14.03
2019-01-30T18:31:25.415Z,19.98
2019-01-30T18:37:20.385Z,20.85
2019-01-30T18:43:15.404Z,20.15
2019-01-30T18:49:10.400Z,22.06
2019-01-30T18:55:05.457Z,19.7
2019-01-30T19:01:00.383Z,15.46
2019-01-30T19:06:55.391Z,12.37
2019-01-30T19:12:50.381Z,12.77
2019-01-30T19:18:45.417Z,16.44
2019-01-30T19:24:40.412Z,15.9
2019-01-30T19:30:35.446Z,16.23
2019-01-30T19:36:30.408Z,20.51
2019-01-30T19:42:25.421Z,16.59
2019-01-30T19:48:20.454Z,23.36
2019-01-30T19:54:15.420Z,15.09
2019-01-30T20:00:10.506Z,13.17
2019-01-30T20:06:05.428Z,16.31
2019-01-30T20:12:00.462Z,12.47
2019-01-30T20:17:55.458Z,12.5
2019-01-30T20:23:50.455Z,13.33
2019-01-30T20:29:45.448Z,14.95
2019-01-30T20:35:40.441Z,16.26
2019-01-30T20:41:35.449Z,14.81
2019-01-30T20:47:30.461Z,14.58
2019-01-30T20:53:25.461Z,13.21
2019-01-30T20:59:20.488Z,18.04
2019-01-30T21:05:15.455Z,11.14
2019-01-30T21:11:10.465Z,9.62
2019-01-30T21:17:05.478Z,10.06
2019-01-30T21:23:00.487Z,7.11
2019-01-30T21:28:55.482Z,7.36
2019-01-30T21:34:50.496Z,8.24
2019-01-30T21:40:45.486Z,8.59
2019-01-30T21:46:40.484Z,33.25
2019-01-30T21:52:35.474Z,25.02
2019-01-30T21:58:30.477Z,8.76
2019-01-30T22:04:25.530Z,7.14
2019-01-30T22:10:20.489Z,5.72
2019-01-30T22:16:15.488Z,4.56
2019-01-30T22:22:10.593Z,6.41
2019-01-30T22:28:05.530Z,4.06
2019-01-30T22:34:00.548Z,3.53
2019-01-30T22:39:55.521Z,3.41
2019-01-30T22:45:50.766Z,3.1
2019-01-30T22:51:45.524Z,3.88
2019-01-30T22:57:40.532Z,3.4
2019-01-30T23:03:35.526Z,2.53
2019-01-30T23:09:30.557Z,4.31
2019-01-30T23:15:25.519Z,2.93
2019-01-30T23:21:20.536Z,2.84
2019-01-30T23:27:15.545Z,2.72
2019-01-30T23:33:10.595Z,2.7
2019-01-30T23:39:05.584Z,6.17
2019-01-30T23:45:00.570Z,6.9
2019-01-30T23:50:55.588Z,11.03
2019-01-30T23:56:50.554Z,4.87
